Ainsworth, Nebraska
Current Conditions -  °F | °C
As of 6:35 PM on Saturday 25 Oct 2014 (Local Time) from KANW Reporting Station
Clear Clear  
Wind Chill: 15°   Ceiling: Unl
Heat Index: 15°   Visibility: 10mi
Dew Point:   Wind: 6mph
Humidity: 39%   Direction: 100°E
Pressure: 30.03"   Gusts: NA
Location:  42.55°N, 99.86°W
Report Text: KANW 252335Z AUTO 10005KT 10SM CLR 15/01 A3003 RMK AO2 T01510012
Loading
Personal Weather Stations






























Interactive Weather Map
Tropical Storm Tracking
New forecast layout! Learn more

10-Day Weather Forecast

Advertisements
Track Severe Weather on mobile